createdAt,value
2023-02-22T00:00:29.337Z,101255.25
2023-02-22T00:03:27.897Z,101253.34
2023-02-22T00:06:02.612Z,101253.16
2023-02-22T00:08:37.496Z,101253.67
2023-02-22T00:11:10.026Z,101254.95
2023-02-22T00:13:38.232Z,101253.27
2023-02-22T00:16:06.748Z,101258.61
2023-02-22T00:18:35.073Z,101259.59
2023-02-22T00:21:03.166Z,101267.14
2023-02-22T00:23:32.023Z,101262.27
2023-02-22T00:26:00.083Z,101265.81
2023-02-22T00:28:28.180Z,101263.80
2023-02-22T00:30:56.509Z,101266.27
2023-02-22T00:33:24.953Z,101266.75
2023-02-22T00:35:52.945Z,101265.11
2023-02-22T00:38:20.869Z,101270.05
2023-02-22T00:40:48.926Z,101269.67
2023-02-22T00:43:18.531Z,101271.54
2023-02-22T00:45:49.379Z,101279.65
2023-02-22T00:48:18.874Z,101281.20
2023-02-22T00:50:48.614Z,101282.95
2023-02-22T00:53:16.723Z,101286.68
2023-02-22T00:55:44.719Z,101291.82
2023-02-22T00:58:12.929Z,101297.91
2023-02-22T01:00:41.782Z,101303.64
2023-02-22T01:03:11.135Z,101300.43
2023-02-22T01:05:39.387Z,101305.54
2023-02-22T01:08:08.320Z,101304.81
2023-02-22T01:10:36.736Z,101305.70
2023-02-22T01:13:09.155Z,101312.15
2023-02-22T01:15:39.082Z,101312.07
2023-02-22T01:18:07.128Z,101313.79
2023-02-22T01:20:35.159Z,101316.86
2023-02-22T01:23:06.634Z,101318.64
2023-02-22T01:25:35.300Z,101322.63
2023-02-22T01:28:04.880Z,101323.83
2023-02-22T01:30:34.163Z,101324.88
2023-02-22T01:33:03.229Z,101328.82
2023-02-22T01:35:33.172Z,101329.73
2023-02-22T01:38:01.472Z,101335.34
2023-02-22T01:40:31.468Z,101334.00
2023-02-22T01:43:01.107Z,101337.98
2023-02-22T01:45:34.981Z,101332.70
2023-02-22T01:48:06.171Z,101335.88
2023-02-22T01:50:37.779Z,101330.90
2023-02-22T01:53:06.932Z,101335.91
2023-02-22T01:55:34.963Z,101335.39
2023-02-22T01:58:03.742Z,101336.05
2023-02-22T02:00:32.249Z,101337.42
2023-02-22T02:03:02.792Z,101335.40
2023-02-22T02:05:34.344Z,101341.29
2023-02-22T02:08:09.939Z,101338.84
2023-02-22T02:10:38.010Z,101339.40
2023-02-22T02:13:06.907Z,101339.54
2023-02-22T02:15:34.898Z,101342.45
2023-02-22T02:18:06.283Z,101347.20
2023-02-22T02:21:04.874Z,101349.73
2023-02-22T02:23:45.621Z,101344.14
2023-02-22T02:26:43.150Z,101349.58
2023-02-22T02:29:29.385Z,101348.11
2023-02-22T02:32:03.461Z,101351.79
2023-02-22T02:35:01.182Z,101352.31
2023-02-22T02:37:48.901Z,101355.77
2023-02-22T02:40:19.959Z,101360.63
2023-02-22T02:43:01.414Z,101362.36
2023-02-22T02:45:52.554Z,101365.80
2023-02-22T02:48:22.349Z,101370.02
2023-02-22T02:50:50.307Z,101368.27
2023-02-22T02:53:21.942Z,101369.94
2023-02-22T02:55:50.966Z,101374.24
2023-02-22T02:58:20.961Z,101376.56
2023-02-22T03:00:50.481Z,101371.38
2023-02-22T03:03:29.303Z,101375.96
2023-02-22T03:06:11.002Z,101379.65
2023-02-22T03:08:43.359Z,101382.45
2023-02-22T03:11:21.507Z,101384.02
2023-02-22T03:14:01.595Z,101388.66
2023-02-22T03:16:42.232Z,101387.50
2023-02-22T03:19:32.309Z,101386.13
2023-02-22T03:22:16.668Z,101394.36
2023-02-22T03:24:59.172Z,101396.52
2023-02-22T03:27:30.174Z,101401.81
2023-02-22T03:30:02.545Z,101404.48
2023-02-22T03:32:33.447Z,101406.67
2023-02-22T03:35:04.555Z,101404.30
2023-02-22T03:37:35.331Z,101407.29
2023-02-22T03:40:14.059Z,101410.38
2023-02-22T03:42:50.606Z,101418.20
2023-02-22T03:45:19.453Z,101417.27
2023-02-22T03:47:50.511Z,101422.88
2023-02-22T03:50:19.199Z,101422.86
2023-02-22T03:52:47.618Z,101422.40
2023-02-22T03:55:21.799Z,101425.20
2023-02-22T03:57:51.839Z,101426.13
2023-02-22T04:00:22.982Z,101428.38
2023-02-22T04:02:51.377Z,101434.77
2023-02-22T04:09:38.150Z,101435.40
2023-02-22T04:12:06.737Z,101438.06
2023-02-22T04:14:48.872Z,101440.81
2023-02-22T04:17:17.409Z,101443.57
2023-02-22T04:19:46.003Z,101441.91
2023-02-22T04:22:15.056Z,101445.42
2023-02-22T04:24:43.030Z,101446.50
2023-02-22T04:27:11.459Z,101446.30
2023-02-22T04:29:39.941Z,101445.94
2023-02-22T04:32:08.509Z,101445.91
2023-02-22T04:34:36.616Z,101447.56
2023-02-22T04:37:04.643Z,101449.39
2023-02-22T04:39:33.873Z,101448.59
2023-02-22T04:42:02.003Z,101448.92
2023-02-22T04:44:30.077Z,101449.10
2023-02-22T04:46:58.154Z,101448.02
2023-02-22T04:49:26.236Z,101452.63
2023-02-22T04:51:55.503Z,101455.69
2023-02-22T04:54:28.406Z,101460.45
2023-02-22T04:56:57.830Z,101459.89
2023-02-22T04:59:25.986Z,101464.45
2023-02-22T05:01:57.315Z,101469.89
2023-02-22T05:04:25.258Z,101473.10
2023-02-22T05:06:55.032Z,101470.34
2023-02-22T05:09:23.141Z,101470.26
2023-02-22T05:11:51.225Z,101464.59
2023-02-22T05:14:19.233Z,101463.92
2023-02-22T05:16:50.013Z,101464.98
2023-02-22T05:19:18.141Z,101464.67
2023-02-22T05:21:46.072Z,101466.42
2023-02-22T05:24:14.310Z,101467.16
2023-02-22T05:26:45.673Z,101468.52
2023-02-22T05:29:13.923Z,101469.59
2023-02-22T05:31:42.172Z,101474.09
2023-02-22T05:34:10.474Z,101477.83
2023-02-22T05:36:38.601Z,101479.58
2023-02-22T05:39:06.609Z,101481.71
2023-02-22T05:41:34.685Z,101485.58
2023-02-22T05:44:03.205Z,101492.23
2023-02-22T05:46:31.262Z,101495.48
2023-02-22T05:48:59.265Z,101502.48
2023-02-22T05:51:27.378Z,101507.17
2023-02-22T05:53:55.380Z,101509.98
2023-02-22T05:56:25.155Z,101513.06
2023-02-22T05:58:53.390Z,101515.59
2023-02-22T06:01:21.787Z,101518.80
2023-02-22T06:03:50.492Z,101516.55
2023-02-22T06:06:22.104Z,101520.09
2023-02-22T06:08:50.614Z,101520.90
2023-02-22T06:11:19.937Z,101519.84
2023-02-22T06:13:51.954Z,101522.11
2023-02-22T06:16:21.548Z,101525.48
2023-02-22T06:18:49.614Z,101524.58
2023-02-22T06:21:18.017Z,101528.80
2023-02-22T06:23:46.231Z,101532.30
2023-02-22T06:26:17.405Z,101532.54
2023-02-22T06:28:46.353Z,101536.93
2023-02-22T06:31:14.576Z,101538.71
2023-02-22T06:33:43.008Z,101542.66
2023-02-22T06:36:11.700Z,101542.14
2023-02-22T06:38:39.734Z,101540.64
2023-02-22T06:41:08.898Z,101540.73
2023-02-22T06:43:37.153Z,101543.85
2023-02-22T06:46:05.580Z,101543.20
2023-02-22T06:48:33.538Z,101546.13
2023-02-22T06:51:01.428Z,101547.41
2023-02-22T06:53:29.382Z,101550.45
2023-02-22T06:55:57.433Z,101551.90
2023-02-22T06:58:25.470Z,101551.64
2023-02-22T07:00:53.675Z,101547.20
2023-02-22T07:03:21.807Z,101547.18
2023-02-22T07:05:49.741Z,101550.30
2023-02-22T07:08:17.713Z,101551.78
2023-02-22T07:10:45.732Z,101556.89
2023-02-22T07:13:15.602Z,101564.08
2023-02-22T07:15:43.629Z,101569.78
2023-02-22T07:18:12.285Z,101569.54
2023-02-22T07:20:40.585Z,101572.12
2023-02-22T07:23:08.529Z,101570.89
2023-02-22T07:25:36.496Z,101571.16
2023-02-22T07:28:04.581Z,101572.63
2023-02-22T07:30:34.250Z,101572.16
2023-02-22T07:33:04.494Z,101571.58
2023-02-22T07:35:37.976Z,101572.92
2023-02-22T07:38:08.252Z,101576.35
2023-02-22T07:40:37.341Z,101577.54
2023-02-22T07:43:13.976Z,101579.52
2023-02-22T07:45:42.165Z,101587.69
2023-02-22T07:48:10.518Z,101588.87
2023-02-22T07:50:38.668Z,101588.05
2023-02-22T07:53:11.158Z,101590.37
2023-02-22T07:55:39.212Z,101591.55
2023-02-22T07:58:08.216Z,101596.63
2023-02-22T08:00:38.014Z,101599.39
2023-02-22T08:03:08.009Z,101597.19
2023-02-22T08:05:37.075Z,101598.08
2023-02-22T08:08:06.228Z,101599.89
2023-02-22T08:10:35.253Z,101601.05
2023-02-22T08:13:03.996Z,101596.65
2023-02-22T08:15:36.802Z,101596.55
2023-02-22T08:18:06.654Z,101598.89
2023-02-22T08:20:34.954Z,101602.27
2023-02-22T08:23:03.455Z,101604.73
2023-02-22T08:25:31.632Z,101594.60
2023-02-22T08:28:04.699Z,101600.55
2023-02-22T08:30:35.021Z,101599.67
2023-02-22T08:33:03.512Z,101602.52
2023-02-22T08:35:32.535Z,101601.44
2023-02-22T08:38:02.756Z,101593.83
2023-02-22T08:40:32.712Z,101596.56
2023-02-22T08:43:01.802Z,101597.42
2023-02-22T08:45:29.961Z,101595.09
2023-02-22T08:47:58.690Z,101594.20
2023-02-22T08:50:28.959Z,101593.02
2023-02-22T08:52:59.466Z,101588.91
2023-02-22T08:55:30.222Z,101591.16
2023-02-22T08:57:59.513Z,101586.54
2023-02-22T09:00:29.703Z,101582.15
2023-02-22T09:02:57.833Z,101581.08
2023-02-22T09:05:26.237Z,101584.12
2023-02-22T09:07:54.424Z,101583.43
2023-02-22T09:10:24.655Z,101585.53
2023-02-22T09:12:55.510Z,101587.55
2023-02-22T09:15:24.137Z,101585.50
2023-02-22T09:17:55.190Z,101587.37
2023-02-22T09:20:23.745Z,101589.80
2023-02-22T09:22:51.946Z,101594.11
2023-02-22T09:25:20.820Z,101597.38
2023-02-22T09:27:49.887Z,101603.10
2023-02-22T09:30:32.658Z,101609.69
2023-02-22T09:33:11.396Z,101610.17
2023-02-22T09:35:42.696Z,101611.55
2023-02-22T09:38:11.764Z,101612.20
2023-02-22T09:40:45.227Z,101614.65
2023-02-22T09:43:31.548Z,101612.61
2023-02-22T09:46:19.336Z,101614.53
2023-02-22T09:48:58.026Z,101611.49
2023-02-22T09:51:30.609Z,101610.30
2023-02-22T09:54:00.348Z,101609.86
2023-02-22T09:56:29.417Z,101615.98
2023-02-22T09:59:01.077Z,101615.00
2023-02-22T10:01:36.525Z,101618.71
2023-02-22T10:04:23.204Z,101614.55
2023-02-22T10:07:14.701Z,101608.66
2023-02-22T10:09:42.876Z,101608.05
2023-02-22T10:12:31.111Z,101611.97
2023-02-22T10:15:16.903Z,101607.04
2023-02-22T10:18:00.030Z,101611.38
2023-02-22T10:20:47.842Z,101613.49
2023-02-22T10:23:36.884Z,101616.58
2023-02-22T10:26:21.160Z,101613.34
2023-02-22T10:28:52.793Z,101618.04
2023-02-22T10:31:27.483Z,101629.50
2023-02-22T10:34:03.689Z,101635.16
2023-02-22T10:36:31.922Z,101631.42
2023-02-22T10:39:11.162Z,101630.47
2023-02-22T10:41:42.789Z,101636.34
2023-02-22T10:44:10.804Z,101638.19
2023-02-22T10:46:39.915Z,101634.67
2023-02-22T10:49:07.888Z,101636.05
2023-02-22T10:51:35.922Z,101636.58
2023-02-22T10:54:26.806Z,101636.00
2023-02-22T10:56:55.840Z,101632.23
2023-02-22T10:59:28.578Z,101633.45
2023-02-22T11:01:56.628Z,101637.20
2023-02-22T11:04:25.076Z,101637.82
2023-02-22T11:06:58.856Z,101632.94
2023-02-22T11:09:29.114Z,101632.92
2023-02-22T11:12:11.169Z,101634.98
2023-02-22T11:14:39.289Z,101631.30
2023-02-22T11:17:07.947Z,101632.02
2023-02-22T11:19:38.543Z,101625.56
2023-02-22T11:22:17.103Z,101624.52
2023-02-22T11:24:57.764Z,101621.13
2023-02-22T11:27:38.694Z,101618.10
2023-02-22T11:30:36.577Z,101611.80
2023-02-22T11:33:23.895Z,101607.30
2023-02-22T11:35:52.969Z,101598.21
2023-02-22T11:38:28.423Z,101606.95
2023-02-22T11:41:15.526Z,101609.66
2023-02-22T11:43:44.926Z,101607.49
2023-02-22T11:46:20.713Z,101609.49
2023-02-22T11:48:55.080Z,101607.44
2023-02-22T11:51:46.036Z,101612.23
2023-02-22T11:54:35.086Z,101615.28
2023-02-22T11:57:22.381Z,101613.08
2023-02-22T12:00:16.579Z,101612.81
2023-02-22T12:02:57.321Z,101609.51
2023-02-22T12:05:59.965Z,101606.29
2023-02-22T12:08:43.002Z,101610.61
2023-02-22T12:11:18.381Z,101606.96
2023-02-22T12:13:58.637Z,101604.89
2023-02-22T12:16:32.770Z,101609.86
2023-02-22T12:19:06.546Z,101612.23
2023-02-22T12:21:34.600Z,101616.59
2023-02-22T12:24:14.525Z,101618.95
2023-02-22T12:26:47.258Z,101617.07
2023-02-22T12:29:27.279Z,101615.98
2023-02-22T12:32:05.003Z,101614.21
2023-02-22T12:34:41.585Z,101619.15
2023-02-22T12:37:22.417Z,101620.86
2023-02-22T12:40:13.564Z,101625.14
2023-02-22T12:42:53.653Z,101619.61
2023-02-22T12:45:28.598Z,101625.16
2023-02-22T12:48:27.566Z,101630.80
2023-02-22T12:50:59.083Z,101632.95
2023-02-22T12:53:35.310Z,101627.98
2023-02-22T12:56:28.286Z,101628.29
2023-02-22T12:59:19.362Z,101626.84
2023-02-22T13:01:51.974Z,101624.86
2023-02-22T13:04:21.478Z,101631.50
2023-02-22T13:07:11.247Z,101632.76
2023-02-22T13:09:51.353Z,101631.73
2023-02-22T13:12:28.746Z,101631.79
2023-02-22T13:15:05.815Z,101632.11
2023-02-22T13:18:01.891Z,101624.98
2023-02-22T13:20:41.433Z,101621.15
2023-02-22T13:23:19.339Z,101622.52
2023-02-22T13:25:58.187Z,101620.20
2023-02-22T13:28:54.928Z,101619.68
2023-02-22T13:31:55.052Z,101617.83
2023-02-22T13:34:50.814Z,101617.16
2023-02-22T13:37:24.752Z,101621.89
2023-02-22T13:40:20.427Z,101624.60
2023-02-22T13:43:25.465Z,101624.80
2023-02-22T13:46:05.413Z,101628.10
2023-02-22T13:49:08.783Z,101625.64
2023-02-22T13:51:52.919Z,101626.59
2023-02-22T13:54:29.929Z,101625.51
2023-02-22T13:56:58.341Z,101629.25
2023-02-22T13:59:36.674Z,101626.51
2023-02-22T14:02:05.728Z,101628.26
2023-02-22T14:04:38.253Z,101625.87
2023-02-22T14:07:18.342Z,101625.86
2023-02-22T14:09:56.641Z,101626.93
2023-02-22T14:12:30.889Z,101627.48
2023-02-22T14:15:27.708Z,101624.09
2023-02-22T14:17:57.006Z,101623.52
2023-02-22T14:20:32.550Z,101626.77
2023-02-22T14:23:40.462Z,101622.30
2023-02-22T14:26:17.955Z,101623.65
2023-02-22T14:29:21.906Z,101632.35
2023-02-22T14:31:52.555Z,101627.52
2023-02-22T14:34:21.995Z,101620.61
2023-02-22T14:36:52.973Z,101621.59
2023-02-22T14:39:23.246Z,101620.29
2023-02-22T14:42:05.894Z,101621.84
2023-02-22T14:44:40.738Z,101625.70
2023-02-22T14:47:14.409Z,101624.95
2023-02-22T14:49:44.027Z,101624.01
2023-02-22T14:52:39.005Z,101625.98
2023-02-22T14:55:11.919Z,101626.60
2023-02-22T14:58:19.758Z,101627.59
2023-02-22T15:00:52.982Z,101634.02
2023-02-22T15:03:24.046Z,101631.69
2023-02-22T15:05:52.061Z,101633.62
2023-02-22T15:08:28.144Z,101637.95
2023-02-22T15:10:56.115Z,101637.81
2023-02-22T15:13:26.095Z,101641.10
2023-02-22T15:16:04.337Z,101646.11
2023-02-22T15:18:38.423Z,101641.89
2023-02-22T15:21:13.475Z,101642.55
2023-02-22T15:23:44.020Z,101644.38
2023-02-22T15:26:19.039Z,101648.06
2023-02-22T15:28:47.243Z,101644.87
2023-02-22T15:31:23.132Z,101648.77
2023-02-22T15:33:53.261Z,101648.98
2023-02-22T15:36:25.369Z,101645.79
2023-02-22T15:38:55.886Z,101649.52
2023-02-22T15:41:31.659Z,101648.42
2023-02-22T15:44:14.111Z,101647.95
2023-02-22T15:46:50.640Z,101646.02
2023-02-22T15:49:20.898Z,101648.31
2023-02-22T15:52:02.148Z,101653.16
2023-02-22T15:54:31.412Z,101649.46
2023-02-22T15:56:59.910Z,101653.04
2023-02-22T15:59:34.325Z,101653.84
2023-02-22T16:02:03.014Z,101655.86
2023-02-22T16:04:31.489Z,101662.88
2023-02-22T16:07:07.072Z,101662.40
2023-02-22T16:09:35.366Z,101666.67
2023-02-22T16:12:30.499Z,101668.55
2023-02-22T16:14:58.556Z,101672.66
2023-02-22T16:17:49.497Z,101674.85
2023-02-22T16:20:24.877Z,101677.09
2023-02-22T16:22:53.134Z,101678.92
2023-02-22T16:25:22.541Z,101680.60
2023-02-22T16:27:52.920Z,101679.25
2023-02-22T16:30:25.777Z,101684.55
2023-02-22T16:32:56.153Z,101688.77
2023-02-22T16:35:31.281Z,101692.10
2023-02-22T16:38:04.274Z,101692.45
2023-02-22T16:40:34.668Z,101692.79
2023-02-22T16:43:13.209Z,101692.85
2023-02-22T16:45:42.561Z,101690.79
2023-02-22T16:48:26.896Z,101696.09
2023-02-22T16:50:55.750Z,101694.98
2023-02-22T16:53:25.156Z,101696.64
2023-02-22T16:55:57.882Z,101705.95
2023-02-22T16:58:28.708Z,101705.31
2023-02-22T17:00:57.665Z,101705.36
2023-02-22T17:03:26.049Z,101705.80
2023-02-22T17:05:54.072Z,101700.98
2023-02-22T17:08:22.470Z,101698.00
2023-02-22T17:10:59.565Z,101696.63
2023-02-22T17:13:27.777Z,101707.75
2023-02-22T17:15:56.733Z,101711.35
2023-02-22T17:18:28.518Z,101712.50
2023-02-22T17:20:59.574Z,101717.14
2023-02-22T17:23:28.065Z,101717.02
2023-02-22T17:26:00.676Z,101710.97
2023-02-22T17:28:29.023Z,101710.59
2023-02-22T17:31:01.993Z,101721.91
2023-02-22T17:33:33.117Z,101722.21
2023-02-22T17:36:02.258Z,101721.48
2023-02-22T17:38:30.765Z,101722.93
2023-02-22T17:41:01.466Z,101721.02
2023-02-22T17:43:30.031Z,101721.02
2023-02-22T17:45:58.336Z,101718.86
2023-02-22T17:48:26.829Z,101714.60
2023-02-22T17:50:55.015Z,101715.18
2023-02-22T17:53:24.994Z,101719.11
2023-02-22T17:55:53.316Z,101713.55
2023-02-22T17:58:22.299Z,101710.01
2023-02-22T18:00:51.668Z,101712.78
2023-02-22T18:03:25.903Z,101714.04
2023-02-22T18:05:57.527Z,101716.71
2023-02-22T18:08:26.790Z,101715.96
2023-02-22T18:10:57.893Z,101712.32
2023-02-22T18:13:27.078Z,101710.88
2023-02-22T18:16:00.251Z,101704.58
2023-02-22T18:18:28.522Z,101702.80
2023-02-22T18:21:00.159Z,101702.90
2023-02-22T18:23:29.838Z,101703.36
2023-02-22T18:26:10.047Z,101697.98
2023-02-22T18:28:39.744Z,101696.11
2023-02-22T18:31:09.123Z,101701.16
2023-02-22T18:33:37.263Z,101702.19
2023-02-22T18:36:05.774Z,101699.83
2023-02-22T18:38:33.953Z,101698.84
2023-02-22T18:41:03.357Z,101695.44
2023-02-22T18:43:37.264Z,101696.30
2023-02-22T18:46:16.419Z,101696.28
2023-02-22T18:48:48.492Z,101694.88
2023-02-22T18:51:17.442Z,101698.04
2023-02-22T18:53:47.766Z,101704.39
2023-02-22T18:56:21.988Z,101703.70
2023-02-22T18:58:53.671Z,101697.33
2023-02-22T19:01:22.203Z,101700.73
2023-02-22T19:03:51.886Z,101701.71
2023-02-22T19:06:22.677Z,101696.08
2023-02-22T19:08:51.050Z,101698.45
2023-02-22T19:11:23.443Z,101699.93
2023-02-22T19:13:53.963Z,101701.11
2023-02-22T19:16:23.424Z,101701.67
2023-02-22T19:18:52.795Z,101699.66
2023-02-22T19:21:21.891Z,101703.73
2023-02-22T19:23:50.861Z,101703.45
2023-02-22T19:26:21.264Z,101700.55
2023-02-22T19:28:49.809Z,101697.42
2023-02-22T19:31:20.114Z,101698.73
2023-02-22T19:33:51.386Z,101701.27
2023-02-22T19:36:19.998Z,101703.27
2023-02-22T19:38:48.790Z,101701.42
2023-02-22T19:41:19.073Z,101696.98
2023-02-22T19:43:48.518Z,101695.44
2023-02-22T19:46:21.361Z,101692.48
2023-02-22T19:48:49.996Z,101691.61
2023-02-22T19:51:19.540Z,101691.95
2023-02-22T19:53:48.654Z,101688.39
2023-02-22T19:56:19.248Z,101687.04
2023-02-22T19:58:49.335Z,101684.59
2023-02-22T20:01:23.045Z,101682.38
2023-02-22T20:03:59.959Z,101685.25
2023-02-22T20:06:30.031Z,101683.97
2023-02-22T20:08:58.525Z,101681.05
2023-02-22T20:11:27.272Z,101679.07
2023-02-22T20:13:58.495Z,101680.24
2023-02-22T20:16:27.698Z,101682.45
2023-02-22T20:18:56.415Z,101682.90
2023-02-22T20:21:28.024Z,101683.79
2023-02-22T20:23:57.427Z,101680.29
2023-02-22T20:26:26.242Z,101681.95
2023-02-22T20:28:54.504Z,101682.69
2023-02-22T20:31:22.861Z,101683.98
2023-02-22T20:33:55.717Z,101684.34
2023-02-22T20:36:24.139Z,101680.84
2023-02-22T20:38:56.592Z,101683.19
2023-02-22T20:41:32.930Z,101685.59
2023-02-22T20:44:01.984Z,101681.55
2023-02-22T20:46:36.347Z,101687.88
2023-02-22T20:49:07.482Z,101691.02
2023-02-22T20:51:35.800Z,101690.13
2023-02-22T20:54:04.032Z,101688.36
2023-02-22T20:56:32.426Z,101691.25
2023-02-22T20:59:03.929Z,101686.13
2023-02-22T21:01:35.424Z,101686.83
2023-02-22T21:04:07.646Z,101687.97
2023-02-22T21:06:40.767Z,101690.98
2023-02-22T21:09:14.700Z,101690.17
2023-02-22T21:11:45.216Z,101689.30
2023-02-22T21:14:18.349Z,101687.90
2023-02-22T21:16:47.866Z,101688.34
2023-02-22T21:19:16.629Z,101688.40
2023-02-22T21:21:45.737Z,101686.02
2023-02-22T21:24:16.207Z,101689.98
2023-02-22T21:26:48.497Z,101688.44
2023-02-22T21:29:17.158Z,101689.78
2023-02-22T21:31:46.342Z,101689.19
2023-02-22T21:34:17.949Z,101686.83
2023-02-22T21:36:46.419Z,101686.46
2023-02-22T21:39:18.345Z,101685.52
2023-02-22T21:41:51.097Z,101688.77
2023-02-22T21:44:19.086Z,101687.16
2023-02-22T21:46:50.481Z,101684.39
2023-02-22T21:49:22.436Z,101686.02
2023-02-22T21:51:51.772Z,101681.73
2023-02-22T21:54:20.265Z,101680.60
2023-02-22T21:56:48.483Z,101683.02
2023-02-22T21:59:23.514Z,101677.55
2023-02-22T22:01:56.086Z,101678.39
2023-02-22T22:04:31.473Z,101676.52
2023-02-22T22:07:00.133Z,101677.48
2023-02-22T22:09:32.909Z,101680.21
2023-02-22T22:12:03.183Z,101679.05
2023-02-22T22:14:33.183Z,101683.44
2023-02-22T22:17:02.870Z,101690.95
2023-02-22T22:19:31.868Z,101693.20
2023-02-22T22:22:00.340Z,101689.34
2023-02-22T22:24:32.075Z,101689.43
2023-02-22T22:27:03.814Z,101687.63
2023-02-22T22:29:34.845Z,101687.95
2023-02-22T22:32:03.366Z,101684.71
2023-02-22T22:34:34.557Z,101680.48
2023-02-22T22:37:03.166Z,101682.95
2023-02-22T22:39:31.672Z,101681.26
2023-02-22T22:41:59.870Z,101681.63
2023-02-22T22:44:32.891Z,101678.94
2023-02-22T22:47:01.257Z,101677.17
2023-02-22T22:49:31.446Z,101675.33
2023-02-22T22:51:59.575Z,101672.89
2023-02-22T22:54:27.689Z,101671.34
2023-02-22T22:56:55.650Z,101671.31
2023-02-22T22:59:24.355Z,101673.36
2023-02-22T23:01:52.435Z,101670.09
2023-02-22T23:04:24.274Z,101665.33
2023-02-22T23:06:53.755Z,101665.16
2023-02-22T23:09:22.687Z,101661.95
2023-02-22T23:11:53.975Z,101664.05
2023-02-22T23:14:24.268Z,101666.39
2023-02-22T23:16:53.691Z,101661.82
2023-02-22T23:19:21.919Z,101663.48
2023-02-22T23:21:50.185Z,101662.85
2023-02-22T23:24:19.489Z,101663.92
2023-02-22T23:26:50.539Z,101665.86
2023-02-22T23:29:19.468Z,101668.59
2023-02-22T23:31:48.804Z,101665.52
2023-02-22T23:34:18.703Z,101667.48
2023-02-22T23:36:47.043Z,101668.31
2023-02-22T23:39:16.154Z,101669.80
2023-02-22T23:41:44.250Z,101669.06
2023-02-22T23:44:17.578Z,101666.77
2023-02-22T23:46:48.631Z,101663.63
2023-02-22T23:49:20.738Z,101663.81
2023-02-22T23:51:48.996Z,101664.62
2023-02-22T23:54:21.243Z,101661.00
2023-02-22T23:56:58.226Z,101662.34
2023-02-22T23:59:27.015Z,101659.52
